createdAt,value
2018-09-23T00:00:19.013Z,1010.81
2018-09-23T00:02:11.997Z,1010.69
2018-09-23T00:03:12.056Z,1010.62
2018-09-23T00:05:05.050Z,1010.66
2018-09-23T00:06:05.099Z,1010.65
2018-09-23T00:07:58.093Z,1010.63
2018-09-23T00:08:58.146Z,1010.63
2018-09-23T00:10:51.139Z,1010.59
2018-09-23T00:11:51.198Z,1010.58
2018-09-23T00:13:44.190Z,1010.58
2018-09-23T00:14:44.242Z,1010.54
2018-09-23T00:16:37.221Z,1010.51
2018-09-23T00:17:37.283Z,1010.51
2018-09-23T00:19:30.274Z,1010.51
2018-09-23T00:20:30.323Z,1010.53
2018-09-23T00:22:23.381Z,1010.50
2018-09-23T00:23:23.369Z,1010.49
2018-09-23T00:25:16.357Z,1010.47
2018-09-23T00:26:16.408Z,1010.46
2018-09-23T00:28:09.393Z,1010.49
2018-09-23T00:29:09.451Z,1010.43
2018-09-23T00:31:02.446Z,1010.43
2018-09-23T00:32:02.499Z,1010.45
2018-09-23T00:33:55.494Z,1010.48
2018-09-23T00:34:55.544Z,1010.49
2018-09-23T00:36:48.529Z,1010.39
2018-09-23T00:37:48.588Z,1010.35
2018-09-23T00:39:41.584Z,1010.35
2018-09-23T00:40:41.640Z,1010.36
2018-09-23T00:42:34.622Z,1010.39
2018-09-23T00:43:34.681Z,1010.40
2018-09-23T00:45:27.671Z,1010.46
2018-09-23T00:46:27.721Z,1010.44
2018-09-23T00:48:20.709Z,1010.48
2018-09-23T00:49:20.768Z,1010.48
2018-09-23T00:51:13.760Z,1010.45
2018-09-23T00:52:13.811Z,1010.40
2018-09-23T00:54:06.797Z,1010.35
2018-09-23T00:55:06.852Z,1010.33
2018-09-23T00:56:59.841Z,1010.25
2018-09-23T00:57:59.896Z,1010.24
2018-09-23T00:59:52.887Z,1010.17
2018-09-23T01:00:52.936Z,1010.15
2018-09-23T01:02:45.920Z,1010.12
2018-09-23T01:03:45.984Z,1010.14
2018-09-23T01:05:38.974Z,1010.12
2018-09-23T01:06:39.028Z,1010.10
2018-09-23T01:08:32.008Z,1010.09
2018-09-23T01:09:32.066Z,1010.05
2018-09-23T01:11:25.057Z,1009.98
2018-09-23T01:12:25.110Z,1010.00
2018-09-23T01:14:18.096Z,1009.95
2018-09-23T01:15:18.154Z,1009.97
2018-09-23T01:17:11.152Z,1009.89
2018-09-23T01:18:11.199Z,1009.89
2018-09-23T01:20:04.189Z,1009.87
2018-09-23T01:21:04.241Z,1009.85
2018-09-23T01:22:57.228Z,1009.91
2018-09-23T01:23:57.284Z,1009.90
2018-09-23T01:25:50.277Z,1009.89
2018-09-23T01:26:50.338Z,1009.87
2018-09-23T01:28:43.314Z,1009.81
2018-09-23T01:29:43.372Z,1009.84
2018-09-23T01:31:36.366Z,1009.83
2018-09-23T01:32:36.416Z,1009.84
2018-09-23T01:34:29.399Z,1009.87
2018-09-23T01:35:29.456Z,1009.78
2018-09-23T01:37:22.449Z,1009.69
2018-09-23T01:38:22.503Z,1009.66
2018-09-23T01:40:15.486Z,1009.57
2018-09-23T01:41:15.543Z,1009.55
2018-09-23T01:43:08.536Z,1009.52
2018-09-23T01:44:08.588Z,1009.53
2018-09-23T01:46:01.574Z,1009.48
2018-09-23T01:47:01.643Z,1009.49
2018-09-23T01:48:54.615Z,1009.43
2018-09-23T01:49:54.673Z,1009.44
2018-09-23T01:51:47.667Z,1009.43
2018-09-23T01:52:47.717Z,1009.41
2018-09-23T01:54:40.700Z,1009.41
2018-09-23T01:55:40.759Z,1009.36
2018-09-23T01:57:33.753Z,1009.31
2018-09-23T01:58:33.804Z,1009.31
2018-09-23T02:00:26.785Z,1009.35
2018-09-23T02:01:26.844Z,1009.36
2018-09-23T02:03:19.842Z,1009.33
2018-09-23T02:04:19.884Z,1009.33
2018-09-23T02:06:12.870Z,1009.26
2018-09-23T02:07:12.928Z,1009.26
2018-09-23T02:09:05.920Z,1009.25
2018-09-23T02:10:05.973Z,1009.23
2018-09-23T02:11:58.963Z,1009.17
2018-09-23T02:12:59.016Z,1009.17
2018-09-23T02:14:51.998Z,1009.16
2018-09-23T02:15:52.062Z,1009.17
2018-09-23T02:17:45.054Z,1009.17
2018-09-23T02:18:45.107Z,1009.15
2018-09-23T02:20:38.101Z,1009.12
2018-09-23T02:21:38.160Z,1009.13
2018-09-23T02:23:31.158Z,1009.07
2018-09-23T02:24:31.200Z,1009.05
2018-09-23T02:26:24.183Z,1009.02
2018-09-23T02:27:24.242Z,1008.95
2018-09-23T02:29:17.235Z,1008.98
2018-09-23T02:30:17.286Z,1008.97
2018-09-23T02:32:10.283Z,1008.91
2018-09-23T02:33:10.334Z,1008.91
2018-09-23T02:35:03.332Z,1008.85
2018-09-23T02:36:03.384Z,1008.89
2018-09-23T02:37:56.377Z,1008.83
2018-09-23T02:38:56.427Z,1008.80
2018-09-23T02:40:49.412Z,1008.76
2018-09-23T02:41:49.481Z,1008.72
2018-09-23T02:43:42.460Z,1008.73
2018-09-23T02:44:42.513Z,1008.71
2018-09-23T02:46:35.536Z,1008.71
2018-09-23T02:47:35.596Z,1008.65
2018-09-23T02:49:28.589Z,1008.64
2018-09-23T02:50:28.637Z,1008.60
2018-09-23T02:52:21.633Z,1008.56
2018-09-23T02:53:21.711Z,1008.56
2018-09-23T02:55:14.679Z,1008.57
2018-09-23T02:56:14.728Z,1008.56
2018-09-23T02:58:07.717Z,1008.53
2018-09-23T02:59:07.771Z,1008.54
2018-09-23T03:01:00.753Z,1008.50
2018-09-23T03:02:00.814Z,1008.49
2018-09-23T03:03:53.857Z,1008.48
2018-09-23T03:04:53.859Z,1008.44
2018-09-23T03:06:46.840Z,1008.39
2018-09-23T03:07:46.922Z,1008.35
2018-09-23T03:09:39.895Z,1008.31
2018-09-23T03:10:39.943Z,1008.25
2018-09-23T03:12:32.928Z,1008.29
2018-09-23T03:13:32.986Z,1008.28
2018-09-23T03:15:25.998Z,1008.24
2018-09-23T03:16:26.051Z,1008.26
2018-09-23T03:18:19.057Z,1008.14
2018-09-23T03:19:19.097Z,1008.13
2018-09-23T03:21:12.094Z,1008.11
2018-09-23T03:22:12.143Z,1008.09
2018-09-23T03:24:05.144Z,1008.10
2018-09-23T03:25:05.182Z,1008.11
2018-09-23T03:26:58.164Z,1008.14
2018-09-23T03:27:58.225Z,1008.16
2018-09-23T03:29:51.219Z,1008.17
2018-09-23T03:30:51.267Z,1008.11
2018-09-23T03:32:44.250Z,1008.10
2018-09-23T03:33:44.307Z,1008.11
2018-09-23T03:35:37.312Z,1008.12
2018-09-23T03:36:37.353Z,1008.07
2018-09-23T03:38:30.338Z,1008.05
2018-09-23T03:39:30.412Z,1008.01
2018-09-23T03:41:23.392Z,1007.96
2018-09-23T03:42:23.445Z,1007.97
2018-09-23T03:44:16.938Z,1007.90
2018-09-23T03:45:16.995Z,1007.82
2018-09-23T03:47:09.987Z,1007.79
2018-09-23T03:48:10.038Z,1007.78
2018-09-23T03:50:03.031Z,1007.73
2018-09-23T03:51:03.079Z,1007.68
2018-09-23T03:52:56.063Z,1007.59
2018-09-23T03:53:56.125Z,1007.49
2018-09-23T03:55:49.123Z,1007.38
2018-09-23T03:56:49.168Z,1007.34
2018-09-23T03:58:42.153Z,1007.30
2018-09-23T03:59:42.249Z,1007.31
2018-09-23T04:01:35.211Z,1007.25
2018-09-23T04:02:35.255Z,1007.27
2018-09-23T04:04:28.237Z,1007.24
2018-09-23T04:05:28.296Z,1007.28
2018-09-23T04:07:21.288Z,1007.26
2018-09-23T04:08:21.341Z,1007.25
2018-09-23T04:10:14.338Z,1007.23
2018-09-23T04:11:14.379Z,1007.28
2018-09-23T04:13:07.359Z,1007.30
2018-09-23T04:14:07.419Z,1007.30
2018-09-23T04:16:00.412Z,1007.31
2018-09-23T04:17:00.465Z,1007.34
2018-09-23T04:18:53.447Z,1007.31
2018-09-23T04:19:53.506Z,1007.29
2018-09-23T04:21:46.499Z,1007.18
2018-09-23T04:22:46.549Z,1007.14
2018-09-23T04:24:39.530Z,1007.20
2018-09-23T04:25:39.590Z,1007.19
2018-09-23T04:27:32.581Z,1007.11
2018-09-23T04:28:32.629Z,1007.11
2018-09-23T04:30:25.624Z,1007.08
2018-09-23T04:31:25.688Z,1007.11
2018-09-23T04:33:18.675Z,1007.12
2018-09-23T04:34:18.725Z,1007.15
2018-09-23T04:36:11.718Z,1007.19
2018-09-23T04:37:11.771Z,1007.25
2018-09-23T04:39:04.757Z,1007.27
2018-09-23T04:40:04.816Z,1007.29
2018-09-23T04:41:57.809Z,1007.31
2018-09-23T04:42:57.861Z,1007.30
2018-09-23T04:44:51.414Z,1007.27
2018-09-23T04:45:51.416Z,1007.25
2018-09-23T04:47:44.412Z,1007.24
2018-09-23T04:48:44.465Z,1007.17
2018-09-23T04:50:37.448Z,1007.13
2018-09-23T04:51:37.507Z,1007.14
2018-09-23T04:53:30.505Z,1007.15
2018-09-23T04:54:30.551Z,1007.20
2018-09-23T04:56:23.535Z,1007.21
2018-09-23T04:57:23.591Z,1007.22
2018-09-23T04:59:16.585Z,1007.21
2018-09-23T05:00:16.638Z,1007.21
2018-09-23T05:02:09.632Z,1007.16
2018-09-23T05:03:09.681Z,1007.14
2018-09-23T05:05:02.666Z,1007.09
2018-09-23T05:06:02.726Z,1007.10
2018-09-23T05:07:55.726Z,1007.12
2018-09-23T05:08:55.772Z,1007.08
2018-09-23T05:10:48.749Z,1007.05
2018-09-23T05:11:48.809Z,1006.99
2018-09-23T05:13:41.801Z,1006.97
2018-09-23T05:14:41.850Z,1006.97
2018-09-23T05:16:34.836Z,1007.03
2018-09-23T05:17:34.896Z,1007.10
2018-09-23T05:19:27.891Z,1007.23
2018-09-23T05:20:27.939Z,1007.27
2018-09-23T05:22:20.923Z,1007.16
2018-09-23T05:23:20.983Z,1007.10
2018-09-23T05:25:13.974Z,1007.09
2018-09-23T05:26:14.025Z,1007.08
2018-09-23T05:28:07.017Z,1007.12
2018-09-23T05:29:07.073Z,1007.08
2018-09-23T05:31:00.073Z,1007.04
2018-09-23T05:32:00.116Z,1006.96
2018-09-23T05:33:53.112Z,1006.98
2018-09-23T05:34:53.160Z,1006.96
2018-09-23T05:36:46.149Z,1007.00
2018-09-23T05:37:46.205Z,1007.03
2018-09-23T05:39:39.198Z,1007.06
2018-09-23T05:40:39.262Z,1007.05
2018-09-23T05:42:32.240Z,1006.98
2018-09-23T05:43:32.294Z,1006.99
2018-09-23T05:45:25.796Z,1006.91
2018-09-23T05:46:25.846Z,1006.90
2018-09-23T05:48:18.846Z,1006.79
2018-09-23T05:49:18.889Z,1006.77
2018-09-23T05:51:11.871Z,1006.70
2018-09-23T05:52:11.931Z,1006.71
2018-09-23T05:54:04.926Z,1006.72
2018-09-23T05:55:04.982Z,1006.78
2018-09-23T05:56:57.963Z,1006.75
2018-09-23T05:57:58.024Z,1006.71
2018-09-23T05:59:51.015Z,1006.58
2018-09-23T06:00:51.065Z,1006.61
2018-09-23T06:02:44.049Z,1006.59
2018-09-23T06:03:44.108Z,1006.63
2018-09-23T06:05:37.100Z,1006.74
2018-09-23T06:06:37.153Z,1006.77
2018-09-23T06:08:30.133Z,1006.83
2018-09-23T06:09:30.192Z,1006.86
2018-09-23T06:11:23.182Z,1006.84
2018-09-23T06:12:23.235Z,1006.83
2018-09-23T06:14:16.227Z,1006.74
2018-09-23T06:15:16.277Z,1006.66
2018-09-23T06:17:09.260Z,1006.63
2018-09-23T06:18:09.320Z,1006.58
2018-09-23T06:20:02.311Z,1006.51
2018-09-23T06:21:02.363Z,1006.54
2018-09-23T06:22:55.355Z,1006.54
2018-09-23T06:23:55.411Z,1006.60
2018-09-23T06:25:48.404Z,1006.72
2018-09-23T06:26:48.457Z,1006.73
2018-09-23T06:28:41.440Z,1006.72
2018-09-23T06:29:41.499Z,1006.72
2018-09-23T06:31:34.484Z,1006.76
2018-09-23T06:32:34.536Z,1006.74
2018-09-23T06:34:27.520Z,1006.66
2018-09-23T06:35:27.580Z,1006.57
2018-09-23T06:37:20.572Z,1006.56
2018-09-23T06:38:20.624Z,1006.60
2018-09-23T06:40:13.617Z,1006.61
2018-09-23T06:41:13.666Z,1006.59
2018-09-23T06:43:06.670Z,1006.49
2018-09-23T06:44:06.710Z,1006.37
2018-09-23T06:45:59.705Z,1006.30
2018-09-23T06:46:59.759Z,1006.29
2018-09-23T06:48:52.746Z,1006.39
2018-09-23T06:49:52.801Z,1006.51
2018-09-23T06:51:45.794Z,1006.54
2018-09-23T06:52:45.849Z,1006.55
2018-09-23T06:54:38.897Z,1006.58
2018-09-23T06:55:39.035Z,1006.64
2018-09-23T06:57:31.954Z,1006.69
2018-09-23T06:58:32.001Z,1006.71
2018-09-23T07:00:25.005Z,1006.69
2018-09-23T07:01:25.046Z,1006.61
2018-09-23T07:03:18.032Z,1006.57
2018-09-23T07:04:18.088Z,1006.50
2018-09-23T07:06:11.082Z,1006.44
2018-09-23T07:07:11.136Z,1006.42
2018-09-23T07:09:04.129Z,1006.30
2018-09-23T07:10:04.176Z,1006.28
2018-09-23T07:11:57.168Z,1006.34
2018-09-23T07:12:57.221Z,1006.43
2018-09-23T07:14:50.203Z,1006.43
2018-09-23T07:15:50.266Z,1006.49
2018-09-23T07:17:43.255Z,1006.51
2018-09-23T07:18:43.308Z,1006.53
2018-09-23T07:20:36.291Z,1006.55
2018-09-23T07:21:36.352Z,1006.57
2018-09-23T07:23:29.345Z,1006.58
2018-09-23T07:24:29.397Z,1006.57
2018-09-23T07:26:22.392Z,1006.55
2018-09-23T07:27:22.445Z,1006.53
2018-09-23T07:29:15.433Z,1006.44
2018-09-23T07:30:15.488Z,1006.42
2018-09-23T07:32:08.480Z,1006.33
2018-09-23T07:33:08.531Z,1006.27
2018-09-23T07:35:01.518Z,1006.19
2018-09-23T07:36:01.578Z,1006.16
2018-09-23T07:37:54.570Z,1006.20
2018-09-23T07:38:54.624Z,1006.17
2018-09-23T07:40:47.607Z,1006.19
2018-09-23T07:41:47.667Z,1006.11
2018-09-23T07:43:40.663Z,1006.06
2018-09-23T07:44:40.721Z,1005.99
2018-09-23T07:46:33.703Z,1005.95
2018-09-23T07:47:33.763Z,1005.90
2018-09-23T07:49:26.759Z,1005.82
2018-09-23T07:50:26.813Z,1005.79
2018-09-23T07:52:19.804Z,1005.83
2018-09-23T07:53:19.855Z,1005.85
2018-09-23T07:55:12.844Z,1005.83
2018-09-23T07:56:12.903Z,1005.88
2018-09-23T07:58:05.894Z,1005.95
2018-09-23T07:59:05.949Z,1005.98
2018-09-23T08:00:58.931Z,1006.02
2018-09-23T08:01:58.994Z,1005.95
2018-09-23T08:03:51.982Z,1005.85
2018-09-23T08:04:52.036Z,1005.79
2018-09-23T08:06:45.024Z,1005.83
2018-09-23T08:07:45.080Z,1005.86
2018-09-23T08:09:38.081Z,1005.80
2018-09-23T08:10:38.140Z,1005.81
2018-09-23T08:12:31.199Z,1005.79
2018-09-23T08:13:31.374Z,1005.75
2018-09-23T08:15:24.175Z,1005.76
2018-09-23T08:16:24.230Z,1005.79
2018-09-23T08:18:17.240Z,1005.80
2018-09-23T08:19:17.326Z,1005.76
2018-09-23T08:21:10.267Z,1005.77
2018-09-23T08:22:10.323Z,1005.75
2018-09-23T08:24:03.317Z,1005.65
2018-09-23T08:25:03.426Z,1005.61
2018-09-23T08:26:56.352Z,1005.60
2018-09-23T08:27:56.412Z,1005.56
2018-09-23T08:29:49.411Z,1005.53
2018-09-23T08:30:49.458Z,1005.48
2018-09-23T08:32:42.440Z,1005.44
2018-09-23T08:33:42.498Z,1005.44
2018-09-23T08:35:35.494Z,1005.45
2018-09-23T08:36:35.547Z,1005.47
2018-09-23T08:38:28.529Z,1005.49
2018-09-23T08:39:28.587Z,1005.47
2018-09-23T08:41:21.579Z,1005.51
2018-09-23T08:42:21.635Z,1005.49
2018-09-23T08:44:14.622Z,1005.50
2018-09-23T08:45:14.682Z,1005.52
2018-09-23T08:47:07.662Z,1005.62
2018-09-23T08:48:07.792Z,1005.63
2018-09-23T08:50:00.720Z,1005.67
2018-09-23T08:51:00.776Z,1005.69
2018-09-23T08:52:53.777Z,1005.64
2018-09-23T08:53:53.843Z,1005.61
2018-09-23T08:55:46.825Z,1005.48
2018-09-23T08:56:46.884Z,1005.48
2018-09-23T08:58:39.868Z,1005.45
2018-09-23T08:59:39.929Z,1005.45
2018-09-23T09:01:32.914Z,1005.47
2018-09-23T09:02:32.968Z,1005.45
2018-09-23T09:04:25.970Z,1005.40
2018-09-23T09:05:26.035Z,1005.38
2018-09-23T09:07:19.032Z,1005.27
2018-09-23T09:08:19.080Z,1005.18
2018-09-23T09:10:12.076Z,1005.12
2018-09-23T09:11:12.139Z,1005.14
2018-09-23T09:13:05.140Z,1005.20
2018-09-23T09:14:05.189Z,1005.20
2018-09-23T09:15:58.200Z,1005.17
2018-09-23T09:16:58.255Z,1005.18
2018-09-23T09:18:51.334Z,1005.14
2018-09-23T09:19:51.310Z,1005.05
2018-09-23T09:21:44.326Z,1004.97
2018-09-23T09:22:44.361Z,1004.86
2018-09-23T09:24:37.340Z,1004.77
2018-09-23T09:25:37.400Z,1004.80
2018-09-23T09:27:30.396Z,1004.76
2018-09-23T09:28:30.451Z,1004.71
2018-09-23T09:30:23.438Z,1004.68
2018-09-23T09:31:23.496Z,1004.70
2018-09-23T09:33:16.505Z,1004.78
2018-09-23T09:34:16.551Z,1004.73
2018-09-23T09:36:09.550Z,1004.62
2018-09-23T09:37:09.596Z,1004.52
2018-09-23T09:39:02.580Z,1004.55
2018-09-23T09:40:02.643Z,1004.62
2018-09-23T09:41:55.634Z,1004.68
2018-09-23T09:42:55.687Z,1004.70
2018-09-23T09:44:48.673Z,1004.66
2018-09-23T09:45:48.729Z,1004.66
2018-09-23T09:47:41.725Z,1004.72
2018-09-23T09:48:41.772Z,1004.75
2018-09-23T09:50:34.755Z,1004.64
2018-09-23T09:51:34.814Z,1004.62
2018-09-23T09:53:27.844Z,1004.52
2018-09-23T09:54:27.855Z,1004.49
2018-09-23T09:56:20.842Z,1004.47
2018-09-23T09:57:20.898Z,1004.38
2018-09-23T09:59:13.894Z,1004.33
2018-09-23T10:00:13.941Z,1004.36
2018-09-23T10:02:06.923Z,1004.31
2018-09-23T10:03:06.982Z,1004.31
2018-09-23T10:05:00.481Z,1004.32
2018-09-23T10:06:00.534Z,1004.35
2018-09-23T10:07:53.528Z,1004.32
2018-09-23T10:08:53.584Z,1004.35
2018-09-23T10:10:46.568Z,1004.38
2018-09-23T10:11:46.628Z,1004.39
2018-09-23T10:13:39.617Z,1004.24
2018-09-23T10:14:39.670Z,1004.14
2018-09-23T10:16:32.650Z,1003.98
2018-09-23T10:17:32.853Z,1003.99
2018-09-23T10:19:25.706Z,1004.02
2018-09-23T10:20:25.766Z,1004.06
2018-09-23T10:22:18.741Z,1004.12
2018-09-23T10:23:18.959Z,1004.10
2018-09-23T10:25:11.794Z,1004.17
2018-09-23T10:26:11.845Z,1004.25
2018-09-23T10:28:04.850Z,1004.41
2018-09-23T10:29:04.979Z,1004.44
2018-09-23T10:30:57.896Z,1004.48
2018-09-23T10:31:57.946Z,1004.48
2018-09-23T10:33:50.940Z,1004.49
2018-09-23T10:34:50.992Z,1004.51
2018-09-23T10:36:43.973Z,1004.58
2018-09-23T10:37:44.036Z,1004.60
2018-09-23T10:39:37.021Z,1004.67
2018-09-23T10:40:37.074Z,1004.66
2018-09-23T10:42:30.058Z,1004.67
2018-09-23T10:43:30.118Z,1004.72
2018-09-23T10:45:23.110Z,1004.71
2018-09-23T10:46:23.160Z,1004.69
2018-09-23T10:48:16.139Z,1004.57
2018-09-23T10:49:16.199Z,1004.44
2018-09-23T10:51:09.188Z,1004.21
2018-09-23T10:52:09.238Z,1004.10
2018-09-23T10:54:02.244Z,1004.12
2018-09-23T10:55:02.282Z,1004.08
2018-09-23T10:56:55.266Z,1004.04
2018-09-23T10:57:55.327Z,1004.02
2018-09-23T10:59:48.315Z,1003.97
2018-09-23T11:00:48.367Z,1004.00
2018-09-23T11:02:41.349Z,1003.92
2018-09-23T11:03:41.434Z,1003.80
2018-09-23T11:05:34.924Z,1003.77
2018-09-23T11:06:34.963Z,1003.67
2018-09-23T11:08:27.946Z,1003.66
2018-09-23T11:09:28.004Z,1003.64
2018-09-23T11:11:21.000Z,1003.70
2018-09-23T11:12:21.125Z,1003.79
2018-09-23T11:14:14.032Z,1003.92
2018-09-23T11:15:14.107Z,1004.05
2018-09-23T11:17:07.087Z,1004.11
2018-09-23T11:18:07.359Z,1004.16
2018-09-23T11:20:00.136Z,1004.13
2018-09-23T11:21:00.172Z,1004.11
2018-09-23T11:22:53.157Z,1004.09
2018-09-23T11:23:53.216Z,1004.13
2018-09-23T11:25:46.202Z,1004.15
2018-09-23T11:26:46.254Z,1004.12
2018-09-23T11:28:39.237Z,1004.07
2018-09-23T11:29:39.299Z,1004.03
2018-09-23T11:31:32.289Z,1003.91
2018-09-23T11:32:32.341Z,1003.83
2018-09-23T11:34:25.321Z,1003.74
2018-09-23T11:35:25.381Z,1003.74
2018-09-23T11:37:18.397Z,1003.56
2018-09-23T11:38:18.455Z,1003.47
2018-09-23T11:40:11.943Z,1003.37
2018-09-23T11:41:12.006Z,1003.40
2018-09-23T11:43:04.996Z,1003.41
2018-09-23T11:44:05.043Z,1003.30
2018-09-23T11:45:58.037Z,1003.24
2018-09-23T11:46:58.085Z,1003.26
2018-09-23T11:48:51.072Z,1003.27
2018-09-23T11:49:51.130Z,1003.23
2018-09-23T11:51:44.129Z,1003.18
2018-09-23T11:52:44.224Z,1003.17
2018-09-23T11:54:37.160Z,1003.16
2018-09-23T11:55:37.238Z,1003.20
2018-09-23T11:57:30.226Z,1003.32
2018-09-23T11:58:30.266Z,1003.39
2018-09-23T12:00:23.248Z,1003.44
2018-09-23T12:01:23.307Z,1003.45
2018-09-23T12:03:16.334Z,1003.47
2018-09-23T12:04:16.383Z,1003.45
2018-09-23T12:06:09.337Z,1003.35
2018-09-23T12:07:09.396Z,1003.34
2018-09-23T12:09:02.389Z,1003.31
2018-09-23T12:10:02.441Z,1003.29
2018-09-23T12:11:55.435Z,1003.33
2018-09-23T12:12:55.479Z,1003.34
2018-09-23T12:14:48.468Z,1003.31
2018-09-23T12:15:48.583Z,1003.07
2018-09-23T12:17:41.513Z,1002.57
2018-09-23T12:18:41.563Z,1002.44
2018-09-23T12:20:34.548Z,1002.36
2018-09-23T12:21:34.606Z,1002.28
2018-09-23T12:23:27.595Z,1002.29
2018-09-23T12:24:27.649Z,1002.33
2018-09-23T12:26:20.639Z,1002.39
2018-09-23T12:27:20.688Z,1002.41
2018-09-23T12:29:13.685Z,1002.57
2018-09-23T12:30:13.999Z,1002.63
2018-09-23T12:32:06.736Z,1002.78
2018-09-23T12:33:06.802Z,1002.86
2018-09-23T12:34:59.754Z,1003.19
2018-09-23T12:35:59.815Z,1003.39
2018-09-23T12:37:52.809Z,1003.77
2018-09-23T12:38:52.865Z,1003.88
2018-09-23T12:40:45.843Z,1004.19
2018-09-23T12:41:45.901Z,1004.26
2018-09-23T12:43:38.897Z,1004.34
2018-09-23T12:44:38.947Z,1004.34
2018-09-23T12:46:31.930Z,1004.28
2018-09-23T12:47:31.987Z,1004.18
2018-09-23T12:49:24.977Z,1003.80
2018-09-23T12:50:25.029Z,1003.80
2018-09-23T12:52:18.011Z,1003.82
2018-09-23T12:53:18.069Z,1003.89
2018-09-23T12:55:11.055Z,1003.83
2018-09-23T12:56:11.107Z,1003.82
2018-09-23T12:58:04.090Z,1003.73
2018-09-23T12:59:04.146Z,1003.65
2018-09-23T13:00:57.132Z,1003.55
2018-09-23T13:01:57.187Z,1003.48
2018-09-23T13:03:50.178Z,1003.30
2018-09-23T13:04:50.227Z,1003.28
2018-09-23T13:06:43.209Z,1003.16
2018-09-23T13:07:43.265Z,1003.11
2018-09-23T13:09:36.252Z,1003.05
2018-09-23T13:10:36.307Z,1003.09
2018-09-23T13:12:29.288Z,1003.17
2018-09-23T13:13:29.347Z,1003.15
2018-09-23T13:15:22.335Z,1003.23
2018-09-23T13:16:22.386Z,1003.36
2018-09-23T13:18:15.483Z,1003.32
2018-09-23T13:19:15.436Z,1003.53
2018-09-23T13:21:08.415Z,1004.00
2018-09-23T13:22:08.511Z,1003.90
2018-09-23T13:24:01.451Z,1003.67
2018-09-23T13:25:01.506Z,1003.53
2018-09-23T13:26:54.496Z,1003.38
2018-09-23T13:27:54.547Z,1003.43
2018-09-23T13:29:47.531Z,1003.51
2018-09-23T13:30:47.589Z,1003.54
2018-09-23T13:32:40.576Z,1003.41
2018-09-23T13:33:40.630Z,1003.40
2018-09-23T13:35:33.610Z,1003.48
2018-09-23T13:36:33.666Z,1003.45
2018-09-23T13:38:26.654Z,1003.51
2018-09-23T13:39:26.704Z,1003.52
2018-09-23T13:41:19.697Z,1003.49
2018-09-23T13:42:19.748Z,1003.43
2018-09-23T13:44:12.729Z,1003.43
2018-09-23T13:45:12.787Z,1003.36
2018-09-23T13:47:05.777Z,1003.41
2018-09-23T13:48:05.827Z,1003.43
2018-09-23T13:49:58.808Z,1003.23
2018-09-23T13:50:58.866Z,1003.20
2018-09-23T13:52:51.858Z,1003.47
2018-09-23T13:53:51.909Z,1003.48
2018-09-23T13:55:44.902Z,1003.43
2018-09-23T13:56:44.966Z,1003.64
2018-09-23T13:58:37.949Z,1003.93
2018-09-23T13:59:38.006Z,1003.99
2018-09-23T14:01:30.996Z,1003.93
2018-09-23T14:02:31.042Z,1003.86
2018-09-23T14:04:24.029Z,1004.12
2018-09-23T14:05:24.085Z,1004.32
2018-09-23T14:07:17.075Z,1004.32
2018-09-23T14:08:17.127Z,1004.19
2018-09-23T14:10:10.107Z,1004.15
2018-09-23T14:11:10.165Z,1004.17
2018-09-23T14:13:03.158Z,1004.24
2018-09-23T14:14:03.208Z,1004.26
2018-09-23T14:15:56.187Z,1004.37
2018-09-23T14:16:56.246Z,1004.34
2018-09-23T14:18:49.239Z,1004.35
2018-09-23T14:19:49.295Z,1004.44
2018-09-23T14:21:42.777Z,1004.48
2018-09-23T14:22:42.837Z,1004.51
2018-09-23T14:24:35.827Z,1004.51
2018-09-23T14:25:35.876Z,1004.59
2018-09-23T14:27:28.859Z,1004.63
2018-09-23T14:28:28.920Z,1004.69
2018-09-23T14:30:21.908Z,1004.90
2018-09-23T14:31:21.958Z,1004.96
2018-09-23T14:33:14.941Z,1005.09
2018-09-23T14:34:14.993Z,1005.18
2018-09-23T14:36:07.989Z,1005.20
2018-09-23T14:37:08.038Z,1005.18
2018-09-23T14:39:01.019Z,1005.04
2018-09-23T14:40:01.076Z,1005.04
2018-09-23T14:41:54.094Z,1005.07
2018-09-23T14:42:54.122Z,1005.16
2018-09-23T14:44:47.109Z,1005.25
2018-09-23T14:45:47.160Z,1005.17
2018-09-23T14:47:40.148Z,1005.17
2018-09-23T14:48:40.202Z,1005.13
2018-09-23T14:50:33.189Z,1005.12
2018-09-23T14:51:33.242Z,1005.07
2018-09-23T14:53:26.223Z,1005.15
2018-09-23T14:54:26.372Z,1005.17
2018-09-23T14:56:19.265Z,1005.16
2018-09-23T14:57:19.317Z,1005.16
2018-09-23T14:59:12.303Z,1005.18
2018-09-23T15:00:12.449Z,1005.18
2018-09-23T15:02:05.412Z,1005.16
2018-09-23T15:03:05.467Z,1005.12
2018-09-23T15:04:58.452Z,1005.11
2018-09-23T15:05:58.505Z,1005.09
2018-09-23T15:07:51.487Z,1004.97
2018-09-23T15:08:51.551Z,1004.91
2018-09-23T15:10:44.537Z,1004.87
2018-09-23T15:11:44.591Z,1004.91
2018-09-23T15:13:37.616Z,1005.05
2018-09-23T15:14:37.631Z,1005.09
2018-09-23T15:16:30.622Z,1005.20
2018-09-23T15:17:30.673Z,1005.25
2018-09-23T15:19:23.661Z,1005.32
2018-09-23T15:20:23.712Z,1005.33
2018-09-23T15:22:16.695Z,1005.46
2018-09-23T15:23:16.754Z,1005.52
2018-09-23T15:25:09.756Z,1005.56
2018-09-23T15:26:09.800Z,1005.57
2018-09-23T15:28:02.775Z,1005.58
2018-09-23T15:29:02.834Z,1005.58
2018-09-23T15:30:55.826Z,1005.74
2018-09-23T15:31:55.878Z,1005.74
2018-09-23T15:33:48.858Z,1005.84
2018-09-23T15:34:48.917Z,1005.91
2018-09-23T15:36:42.415Z,1005.97
2018-09-23T15:37:42.466Z,1005.96
2018-09-23T15:39:35.445Z,1005.98
2018-09-23T15:40:35.502Z,1006.05
2018-09-23T15:42:28.567Z,1006.15
2018-09-23T15:43:28.585Z,1006.20
2018-09-23T15:45:21.527Z,1006.18
2018-09-23T15:46:21.584Z,1006.09
2018-09-23T15:48:14.569Z,1005.97
2018-09-23T15:49:14.620Z,1005.91
2018-09-23T15:51:07.602Z,1005.81
2018-09-23T15:52:07.717Z,1005.81
2018-09-23T15:54:00.656Z,1005.85
2018-09-23T15:55:00.702Z,1005.89
2018-09-23T15:56:53.704Z,1005.93
2018-09-23T15:57:53.777Z,1005.95
2018-09-23T15:59:46.725Z,1006.09
2018-09-23T16:00:46.782Z,1006.12
2018-09-23T16:02:39.769Z,1006.20
2018-09-23T16:03:39.822Z,1006.21
2018-09-23T16:05:37.815Z,1006.22
2018-09-23T16:06:37.926Z,1006.28
2018-09-23T16:08:30.879Z,1006.32
2018-09-23T16:09:30.903Z,1006.39
2018-09-23T16:11:23.882Z,1006.50
2018-09-23T16:12:23.941Z,1006.53
2018-09-23T16:14:16.927Z,1006.56
2018-09-23T16:15:16.981Z,1006.62
2018-09-23T16:17:09.962Z,1006.66
2018-09-23T16:18:10.032Z,1006.65
2018-09-23T16:20:03.014Z,1006.75
2018-09-23T16:21:03.062Z,1006.75
2018-09-23T16:22:56.053Z,1006.84
2018-09-23T16:23:56.132Z,1006.90
2018-09-23T16:25:49.142Z,1006.99
2018-09-23T16:26:49.305Z,1006.99
2018-09-23T16:28:42.153Z,1007.10
2018-09-23T16:29:42.204Z,1007.09
2018-09-23T16:31:35.185Z,1007.26
2018-09-23T16:32:35.241Z,1007.29
2018-09-23T16:34:28.234Z,1007.32
2018-09-23T16:35:28.282Z,1007.33
2018-09-23T16:37:21.773Z,1007.38
2018-09-23T16:38:21.830Z,1007.42
2018-09-23T16:40:14.860Z,1007.51
2018-09-23T16:41:14.875Z,1007.54
2018-09-23T16:43:07.863Z,1007.61
2018-09-23T16:44:07.921Z,1007.65
2018-09-23T16:46:00.915Z,1007.71
2018-09-23T16:47:00.978Z,1007.73
2018-09-23T16:48:53.958Z,1007.87
2018-09-23T16:49:54.024Z,1007.87
2018-09-23T16:51:47.054Z,1007.92
2018-09-23T16:52:47.053Z,1007.95
2018-09-23T16:54:40.112Z,1007.99
2018-09-23T16:55:40.120Z,1007.99
2018-09-23T16:57:33.101Z,1008.05
2018-09-23T16:58:33.164Z,1008.06
2018-09-23T17:00:26.207Z,1008.07
2018-09-23T17:01:26.198Z,1008.16
2018-09-23T17:03:19.179Z,1008.19
2018-09-23T17:04:19.237Z,1008.21
2018-09-23T17:06:12.231Z,1008.25
2018-09-23T17:07:12.294Z,1008.32
2018-09-23T17:09:05.276Z,1008.36
2018-09-23T17:10:05.332Z,1008.41
2018-09-23T17:11:58.324Z,1008.46
2018-09-23T17:12:58.371Z,1008.50
2018-09-23T17:14:51.357Z,1008.48
2018-09-23T17:15:51.409Z,1008.52
2018-09-23T17:17:44.391Z,1008.56
2018-09-23T17:18:44.447Z,1008.54
2018-09-23T17:20:37.441Z,1008.60
2018-09-23T17:21:37.488Z,1008.60
2018-09-23T17:23:30.488Z,1008.66
2018-09-23T17:24:30.528Z,1008.70
2018-09-23T17:26:23.520Z,1008.73